createdAt,value
2018-08-25T00:00:37.523Z,52.70
2018-08-25T00:05:41.118Z,52.99
2018-08-25T00:10:44.826Z,52.69
2018-08-25T00:15:48.460Z,52.48
2018-08-25T00:20:52.148Z,53.31
2018-08-25T00:25:55.750Z,53.37
2018-08-25T00:31:04.993Z,54.06
2018-08-25T00:36:08.601Z,53.80
2018-08-25T00:41:12.313Z,54.53
2018-08-25T00:46:16.189Z,54.95
2018-08-25T00:51:19.715Z,55.28
2018-08-25T00:56:23.318Z,55.43
2018-08-25T01:01:27.391Z,55.26
2018-08-25T01:06:31.492Z,54.76
2018-08-25T01:11:35.640Z,54.54
2018-08-25T01:16:40.056Z,54.33
2018-08-25T01:21:44.001Z,54.25
2018-08-25T01:26:48.084Z,53.71
2018-08-25T01:31:52.111Z,53.46
2018-08-25T01:36:55.461Z,53.20
2018-08-25T01:41:58.878Z,52.85
2018-08-25T01:47:02.221Z,53.35
2018-08-25T01:52:05.756Z,53.25
2018-08-25T01:57:09.197Z,53.65
2018-08-25T02:02:12.585Z,53.64
2018-08-25T02:07:15.956Z,53.86
2018-08-25T02:12:19.455Z,54.90
2018-08-25T02:17:22.778Z,54.91
2018-08-25T02:22:26.101Z,54.88
2018-08-25T02:27:29.436Z,54.99
2018-08-25T02:32:32.785Z,54.66
2018-08-25T02:37:36.147Z,54.82
2018-08-25T02:42:39.841Z,54.70
2018-08-25T02:47:43.161Z,55.11
2018-08-25T02:52:46.543Z,54.85
2018-08-25T02:57:49.885Z,55.22
2018-08-25T03:02:53.257Z,55.23
2018-08-25T03:07:58.082Z,54.94
2018-08-25T03:13:01.413Z,54.86
2018-08-25T03:18:04.836Z,55.05
2018-08-25T03:23:08.270Z,55.38
2018-08-25T03:28:11.630Z,55.67
2018-08-25T03:33:15.009Z,56.30
2018-08-25T03:38:18.370Z,55.85
2018-08-25T03:43:21.754Z,56.19
2018-08-25T03:48:25.130Z,56.51
2018-08-25T03:53:28.537Z,57.31
2018-08-25T03:58:31.993Z,56.83
2018-08-25T04:03:35.392Z,57.07
2018-08-25T04:08:38.744Z,57.11
2018-08-25T04:13:42.226Z,57.48
2018-08-25T04:18:45.584Z,57.32
2018-08-25T04:23:48.902Z,57.61
2018-08-25T04:28:52.384Z,57.27
2018-08-25T04:33:55.736Z,57.20
2018-08-25T04:38:59.074Z,57.06
2018-08-25T04:44:03.567Z,56.57
2018-08-25T04:49:07.136Z,55.91
2018-08-25T04:54:10.489Z,55.84
2018-08-25T04:59:13.797Z,54.99
2018-08-25T05:04:17.119Z,54.71
2018-08-25T05:09:20.500Z,54.35
2018-08-25T05:14:23.921Z,53.80
2018-08-25T05:19:27.273Z,53.99
2018-08-25T05:24:30.656Z,53.64
2018-08-25T05:29:34.224Z,53.74
2018-08-25T05:34:37.564Z,53.52
2018-08-25T05:39:40.930Z,52.75
2018-08-25T05:44:44.292Z,52.95
2018-08-25T05:49:47.750Z,52.61
2018-08-25T05:54:51.076Z,53.88
2018-08-25T05:59:54.682Z,54.96
2018-08-25T06:04:58.101Z,58.61
2018-08-25T06:10:01.713Z,61.36
2018-08-25T06:15:05.327Z,63.27
2018-08-25T06:20:11.198Z,64.84
2018-08-25T06:25:14.668Z,66.37
2018-08-25T06:30:18.108Z,67.74
2018-08-25T06:35:21.405Z,68.66
2018-08-25T06:40:24.781Z,68.72
2018-08-25T06:45:28.148Z,68.54
2018-08-25T06:50:31.562Z,68.78
2018-08-25T06:55:34.898Z,68.42
2018-08-25T07:00:38.302Z,67.92
2018-08-25T07:05:41.817Z,68.30
2018-08-25T07:10:45.412Z,68.81
2018-08-25T07:15:48.918Z,68.70
2018-08-25T07:20:52.374Z,68.52
2018-08-25T07:25:55.818Z,68.07
2018-08-25T07:30:59.259Z,67.47
2018-08-25T07:36:02.779Z,66.69
2018-08-25T07:41:06.369Z,66.79
2018-08-25T07:46:09.791Z,65.85
2018-08-25T07:51:13.150Z,66.00
2018-08-25T07:56:16.568Z,64.55
2018-08-25T08:01:19.952Z,64.48
2018-08-25T08:06:23.434Z,64.12
2018-08-25T08:11:26.880Z,63.32
2018-08-25T08:16:30.245Z,61.97
2018-08-25T08:21:33.662Z,62.57
2018-08-25T08:26:37.029Z,63.26
2018-08-25T08:31:40.412Z,63.67
2018-08-25T08:36:43.778Z,63.78
2018-08-25T08:41:47.165Z,64.31
2018-08-25T08:46:50.659Z,65.26
2018-08-25T08:51:54.175Z,61.79
2018-08-25T08:56:57.581Z,60.61
2018-08-25T09:02:00.920Z,59.04
2018-08-25T09:07:04.369Z,58.72
2018-08-25T09:12:07.794Z,59.67
2018-08-25T09:17:11.157Z,59.81
2018-08-25T09:22:14.621Z,59.59
2018-08-25T09:27:18.135Z,61.29
2018-08-25T09:32:21.535Z,60.17
2018-08-25T09:37:25.040Z,56.35
2018-08-25T09:42:28.445Z,53.33
2018-08-25T09:47:32.138Z,51.19
2018-08-25T09:52:35.649Z,50.21
2018-08-25T09:57:39.038Z,49.95
2018-08-25T10:02:42.362Z,51.36
2018-08-25T10:07:45.725Z,53.40
2018-08-25T10:12:49.111Z,59.20
2018-08-25T10:17:52.577Z,63.32
2018-08-25T10:22:55.925Z,62.37
2018-08-25T10:27:59.422Z,61.97
2018-08-25T10:33:02.795Z,59.89
2018-08-25T10:38:06.626Z,57.96
2018-08-25T10:43:10.128Z,56.42
2018-08-25T10:48:13.802Z,54.37
2018-08-25T10:53:17.156Z,58.92
2018-08-25T10:58:20.686Z,60.62
2018-08-25T11:03:24.135Z,59.90
2018-08-25T11:08:27.502Z,58.74
2018-08-25T11:13:30.853Z,57.65
2018-08-25T11:18:34.392Z,58.92
2018-08-25T11:23:37.815Z,58.23
2018-08-25T11:28:41.278Z,54.57
2018-08-25T11:33:44.618Z,53.17
2018-08-25T11:38:48.188Z,50.18
2018-08-25T11:43:51.582Z,48.94
2018-08-25T11:48:54.735Z,48.99
2018-08-25T11:53:58.111Z,48.72
2018-08-25T11:59:01.477Z,49.24
2018-08-25T12:04:05.065Z,48.35
2018-08-25T12:09:10.842Z,45.91
2018-08-25T12:14:14.253Z,46.62
2018-08-25T12:19:17.816Z,46.98
2018-08-25T12:24:21.136Z,47.33
2018-08-25T12:29:24.552Z,47.72
2018-08-25T12:34:28.164Z,47.28
2018-08-25T12:39:31.970Z,46.96
2018-08-25T12:44:35.361Z,46.89
2018-08-25T12:49:38.786Z,48.46
2018-08-25T12:54:42.130Z,48.37
2018-08-25T12:59:45.578Z,47.15
2018-08-25T13:04:49.015Z,47.55
2018-08-25T13:09:52.349Z,47.98
2018-08-25T13:14:55.695Z,45.89
2018-08-25T13:19:59.107Z,45.57
2018-08-25T13:25:02.519Z,45.27
2018-08-25T13:30:06.078Z,45.08
2018-08-25T13:35:09.440Z,44.14
2018-08-25T13:40:12.835Z,43.16
2018-08-25T13:45:16.366Z,42.74
2018-08-25T13:50:19.798Z,43.54
2018-08-25T13:55:23.274Z,43.75
2018-08-25T14:00:26.857Z,43.76
2018-08-25T14:05:30.606Z,46.36
2018-08-25T14:10:34.425Z,50.64
2018-08-25T14:15:38.048Z,51.90
2018-08-25T14:20:41.478Z,51.36
2018-08-25T14:25:44.909Z,51.04
2018-08-25T14:30:48.308Z,50.92
2018-08-25T14:35:51.645Z,52.40
2018-08-25T14:40:55.177Z,55.55
2018-08-25T14:45:58.648Z,55.20
2018-08-25T14:51:02.127Z,54.46
2018-08-25T14:56:05.859Z,52.46
2018-08-25T15:01:09.272Z,50.84
2018-08-25T15:06:12.698Z,49.49
2018-08-25T15:11:16.022Z,50.27
2018-08-25T15:16:19.410Z,50.26
2018-08-25T15:21:22.873Z,49.99
2018-08-25T15:26:26.380Z,49.43
2018-08-25T15:31:29.786Z,49.73
2018-08-25T15:36:34.029Z,51.65
2018-08-25T15:41:37.454Z,50.71
2018-08-25T15:46:40.845Z,49.52
2018-08-25T15:51:44.227Z,50.42
2018-08-25T15:56:47.609Z,49.15
2018-08-25T16:01:51.058Z,46.72
2018-08-25T16:06:54.110Z,46.00
2018-08-25T16:11:57.564Z,46.54
2018-08-25T16:17:00.931Z,46.70
2018-08-25T16:22:04.355Z,47.10
2018-08-25T16:27:08.247Z,47.22
2018-08-25T16:32:11.691Z,48.40
2018-08-25T16:37:15.077Z,50.25
2018-08-25T16:42:18.430Z,51.57
2018-08-25T16:47:21.777Z,52.26
2018-08-25T16:52:25.539Z,53.56
2018-08-25T16:57:28.892Z,53.26
2018-08-25T17:02:32.302Z,52.38
2018-08-25T17:07:35.629Z,51.76
2018-08-25T17:12:38.821Z,50.82
2018-08-25T17:17:42.246Z,50.26
2018-08-25T17:22:45.642Z,49.68
2018-08-25T17:27:49.007Z,50.35
2018-08-25T17:32:53.037Z,51.32
2018-08-25T17:37:56.809Z,52.30
2018-08-25T17:43:00.524Z,52.58
2018-08-25T17:48:04.033Z,52.71
2018-08-25T17:53:07.449Z,52.74
2018-08-25T17:58:12.532Z,53.55
2018-08-25T18:03:16.044Z,54.23
2018-08-25T18:08:19.425Z,55.06
2018-08-25T18:13:22.781Z,55.78
2018-08-25T18:18:26.170Z,55.97
2018-08-25T18:23:29.814Z,56.73
2018-08-25T18:28:33.194Z,57.09
2018-08-25T18:33:36.639Z,57.71
2018-08-25T18:38:40.109Z,58.18
2018-08-25T18:43:44.759Z,57.96
2018-08-25T18:48:48.723Z,58.80
2018-08-25T18:53:53.089Z,58.80
2018-08-25T18:58:57.338Z,59.59
2018-08-25T19:04:01.598Z,60.55
2018-08-25T19:09:08.175Z,61.44
2018-08-25T19:14:12.170Z,61.64
2018-08-25T19:19:16.186Z,62.62
2018-08-25T19:24:20.275Z,62.84
2018-08-25T19:29:24.342Z,62.47
2018-08-25T19:34:28.107Z,61.47
2018-08-25T19:39:32.040Z,60.52
2018-08-25T19:44:36.112Z,63.11
2018-08-25T19:49:39.621Z,63.82
2018-08-25T19:54:43.066Z,64.15
2018-08-25T19:59:47.709Z,64.70
2018-08-25T20:04:51.246Z,64.51
2018-08-25T20:09:54.707Z,65.42
2018-08-25T20:14:58.155Z,65.19
2018-08-25T20:20:01.822Z,65.40
2018-08-25T20:25:05.742Z,65.18
2018-08-25T20:30:09.430Z,65.61
2018-08-25T20:35:14.479Z,66.38
2018-08-25T20:40:18.834Z,66.09
2018-08-25T20:45:22.403Z,66.96
2018-08-25T20:50:25.829Z,66.94
2018-08-25T20:55:29.193Z,67.65
2018-08-25T21:00:32.477Z,67.51
2018-08-25T21:05:35.985Z,67.66
2018-08-25T21:10:39.443Z,67.42
2018-08-25T21:15:42.833Z,67.65
2018-08-25T21:20:46.206Z,67.30
2018-08-25T21:25:49.629Z,67.47
2018-08-25T21:30:53.064Z,68.13
2018-08-25T21:35:56.422Z,68.15
2018-08-25T21:40:59.796Z,67.88
2018-08-25T21:46:03.175Z,67.60
2018-08-25T21:51:06.692Z,68.53
2018-08-25T21:56:10.007Z,68.53
2018-08-25T22:01:13.468Z,68.41
2018-08-25T22:06:16.834Z,69.01
2018-08-25T22:11:20.325Z,69.30
2018-08-25T22:16:23.568Z,68.80
2018-08-25T22:21:27.012Z,68.80
2018-08-25T22:26:30.455Z,69.02
2018-08-25T22:31:33.882Z,68.93
2018-08-25T22:36:37.288Z,69.35
2018-08-25T22:41:40.848Z,69.82
2018-08-25T22:46:44.271Z,69.34
2018-08-25T22:51:47.656Z,69.88
2018-08-25T22:56:51.185Z,70.12
2018-08-25T23:01:54.583Z,69.59
2018-08-25T23:06:58.013Z,70.39
2018-08-25T23:12:01.513Z,69.79
2018-08-25T23:17:04.978Z,69.63
2018-08-25T23:22:08.549Z,70.10
2018-08-25T23:27:12.041Z,69.81
2018-08-25T23:32:15.438Z,70.13
2018-08-25T23:37:18.804Z,70.42
2018-08-25T23:42:22.224Z,70.99
2018-08-25T23:47:25.689Z,71.12
2018-08-25T23:52:33.440Z,70.49
2018-08-25T23:57:36.873Z,70.87
